sensor_id;sensor_type;location;lat;lon;timestamp;pressure;altitude;pressure_sealevel;temperature;humidity
9784;BME280;4931;44.874;-1.092;2023-04-22T00:00:14;100136.56;;;15.88;100.00
9784;BME280;4931;44.874;-1.092;2023-04-22T00:02:39;100159.06;;;15.69;100.00
9784;BME280;4931;44.874;-1.092;2023-04-22T00:05:06;100171.63;;;15.05;100.00
9784;BME280;4931;44.874;-1.092;2023-04-22T00:07:32;100191.13;;;15.00;100.00
9784;BME280;4931;44.874;-1.092;2023-04-22T00:09:57;100231.88;;;15.03;100.00
9784;BME280;4931;44.874;-1.092;2023-04-22T00:12:23;100257.22;;;14.97;100.00
9784;BME280;4931;44.874;-1.092;2023-04-22T00:14:49;100233.19;;;14.97;100.00
9784;BME280;4931;44.874;-1.092;2023-04-22T00:17:14;100164.56;;;14.55;100.00
9784;BME280;4931;44.874;-1.092;2023-04-22T00:19:40;100151.22;;;14.49;100.00
9784;BME280;4931;44.874;-1.092;2023-04-22T00:22:06;100155.50;;;14.15;100.00
9784;BME280;4931;44.874;-1.092;2023-04-22T00:24:31;100147.09;;;14.20;100.00
9784;BME280;4931;44.874;-1.092;2023-04-22T00:26:57;100136.63;;;13.99;100.00
9784;BME280;4931;44.874;-1.092;2023-04-22T00:29:24;100117.81;;;14.01;100.00
9784;BME280;4931;44.874;-1.092;2023-04-22T00:31:49;100115.53;;;14.03;100.00
9784;BME280;4931;44.874;-1.092;2023-04-22T00:34:15;100125.16;;;13.74;100.00
9784;BME280;4931;44.874;-1.092;2023-04-22T00:36:44;100126.66;;;13.81;100.00
9784;BME280;4931;44.874;-1.092;2023-04-22T00:39:10;100130.66;;;13.74;100.00
9784;BME280;4931;44.874;-1.092;2023-04-22T00:41:37;100131.66;;;13.78;100.00
9784;BME280;4931;44.874;-1.092;2023-04-22T00:44:04;100132.22;;;13.58;100.00
9784;BME280;4931;44.874;-1.092;2023-04-22T00:46:30;100137.06;;;13.61;100.00
9784;BME280;4931;44.874;-1.092;2023-04-22T00:48:58;100154.59;;;13.65;100.00
9784;BME280;4931;44.874;-1.092;2023-04-22T00:51:24;100172.63;;;13.49;100.00
9784;BME280;4931;44.874;-1.092;2023-04-22T00:53:50;100163.25;;;13.50;100.00
9784;BME280;4931;44.874;-1.092;2023-04-22T00:56:16;100173.75;;;13.25;100.00
9784;BME280;4931;44.874;-1.092;2023-04-22T00:58:42;100188.22;;;13.31;100.00
9784;BME280;4931;44.874;-1.092;2023-04-22T01:01:08;100193.91;;;13.34;100.00
9784;BME280;4931;44.874;-1.092;2023-04-22T01:03:35;100171.50;;;13.27;100.00
9784;BME280;4931;44.874;-1.092;2023-04-22T01:06:02;100146.59;;;13.32;100.00
9784;BME280;4931;44.874;-1.092;2023-04-22T01:08:28;100148.13;;;13.38;100.00
9784;BME280;4931;44.874;-1.092;2023-04-22T01:10:55;100135.19;;;13.25;100.00
9784;BME280;4931;44.874;-1.092;2023-04-22T01:13:21;100161.47;;;13.45;100.00
9784;BME280;4931;44.874;-1.092;2023-04-22T01:15:47;100167.09;;;13.40;100.00
9784;BME280;4931;44.874;-1.092;2023-04-22T01:18:13;100181.06;;;13.43;100.00
9784;BME280;4931;44.874;-1.092;2023-04-22T01:20:39;100183.50;;;13.31;100.00
9784;BME280;4931;44.874;-1.092;2023-04-22T01:23:13;100159.09;;;13.16;100.00
9784;BME280;4931;44.874;-1.092;2023-04-22T01:25:41;100137.94;;;13.02;100.00
9784;BME280;4931;44.874;-1.092;2023-04-22T01:28:07;100171.63;;;13.22;100.00
9784;BME280;4931;44.874;-1.092;2023-04-22T01:30:33;100195.28;;;13.23;100.00
9784;BME280;4931;44.874;-1.092;2023-04-22T01:32:59;100197.63;;;13.16;100.00
9784;BME280;4931;44.874;-1.092;2023-04-22T01:35:25;100198.25;;;13.26;100.00
9784;BME280;4931;44.874;-1.092;2023-04-22T01:37:51;100213.16;;;13.11;100.00
9784;BME280;4931;44.874;-1.092;2023-04-22T01:40:18;100222.97;;;13.04;100.00
9784;BME280;4931;44.874;-1.092;2023-04-22T01:42:47;100242.19;;;12.95;100.00
9784;BME280;4931;44.874;-1.092;2023-04-22T01:45:13;100238.91;;;12.93;100.00
9784;BME280;4931;44.874;-1.092;2023-04-22T01:47:41;100240.75;;;12.98;100.00
9784;BME280;4931;44.874;-1.092;2023-04-22T01:50:07;100259.50;;;12.95;100.00
9784;BME280;4931;44.874;-1.092;2023-04-22T01:52:33;100249.19;;;13.01;100.00
9784;BME280;4931;44.874;-1.092;2023-04-22T01:55:00;100249.91;;;12.93;100.00
9784;BME280;4931;44.874;-1.092;2023-04-22T01:57:26;100251.53;;;12.94;100.00
9784;BME280;4931;44.874;-1.092;2023-04-22T01:59:52;100234.63;;;12.87;100.00
9784;BME280;4931;44.874;-1.092;2023-04-22T02:02:17;100231.38;;;12.85;100.00
9784;BME280;4931;44.874;-1.092;2023-04-22T02:04:43;100228.41;;;12.95;100.00
9784;BME280;4931;44.874;-1.092;2023-04-22T02:07:08;100243.97;;;13.00;100.00
9784;BME280;4931;44.874;-1.092;2023-04-22T02:09:34;100259.59;;;13.04;100.00
9784;BME280;4931;44.874;-1.092;2023-04-22T02:11:59;100288.75;;;13.05;100.00
9784;BME280;4931;44.874;-1.092;2023-04-22T02:14:25;100300.91;;;13.04;100.00
9784;BME280;4931;44.874;-1.092;2023-04-22T02:16:51;100302.53;;;13.05;100.00
9784;BME280;4931;44.874;-1.092;2023-04-22T02:19:17;100295.56;;;13.22;100.00
9784;BME280;4931;44.874;-1.092;2023-04-22T02:21:42;100292.53;;;13.09;100.00
9784;BME280;4931;44.874;-1.092;2023-04-22T02:24:08;100295.47;;;13.13;100.00
9784;BME280;4931;44.874;-1.092;2023-04-22T02:26:33;100304.81;;;13.26;100.00
9784;BME280;4931;44.874;-1.092;2023-04-22T02:28:59;100328.41;;;13.18;100.00
9784;BME280;4931;44.874;-1.092;2023-04-22T02:31:25;100324.94;;;13.12;100.00
9784;BME280;4931;44.874;-1.092;2023-04-22T02:33:50;100336.25;;;13.25;100.00
9784;BME280;4931;44.874;-1.092;2023-04-22T02:36:16;100342.91;;;13.24;100.00
9784;BME280;4931;44.874;-1.092;2023-04-22T02:38:41;100343.50;;;13.21;100.00
9784;BME280;4931;44.874;-1.092;2023-04-22T02:41:07;100353.50;;;13.31;100.00
9784;BME280;4931;44.874;-1.092;2023-04-22T02:43:32;100369.41;;;13.34;100.00
9784;BME280;4931;44.874;-1.092;2023-04-22T02:45:58;100368.00;;;13.36;100.00
9784;BME280;4931;44.874;-1.092;2023-04-22T02:48:23;100371.66;;;13.45;100.00
9784;BME280;4931;44.874;-1.092;2023-04-22T02:50:49;100383.91;;;13.39;100.00
9784;BME280;4931;44.874;-1.092;2023-04-22T02:53:15;100399.19;;;13.59;100.00
9784;BME280;4931;44.874;-1.092;2023-04-22T02:55:40;100405.31;;;13.56;100.00
9784;BME280;4931;44.874;-1.092;2023-04-22T02:58:06;100406.94;;;13.57;100.00
9784;BME280;4931;44.874;-1.092;2023-04-22T03:00:33;100415.09;;;13.63;100.00
9784;BME280;4931;44.874;-1.092;2023-04-22T03:02:58;100415.53;;;13.56;100.00
9784;BME280;4931;44.874;-1.092;2023-04-22T03:05:24;100418.16;;;13.61;100.00
9784;BME280;4931;44.874;-1.092;2023-04-22T03:07:50;100426.34;;;13.66;100.00
9784;BME280;4931;44.874;-1.092;2023-04-22T03:10:16;100432.59;;;13.58;100.00
9784;BME280;4931;44.874;-1.092;2023-04-22T03:12:41;100443.59;;;13.58;100.00
9784;BME280;4931;44.874;-1.092;2023-04-22T03:15:07;100436.44;;;13.57;100.00
9784;BME280;4931;44.874;-1.092;2023-04-22T03:17:33;100446.63;;;13.56;100.00
9784;BME280;4931;44.874;-1.092;2023-04-22T03:19:59;100433.09;;;13.46;100.00
9784;BME280;4931;44.874;-1.092;2023-04-22T03:22:24;100429.72;;;13.49;100.00
9784;BME280;4931;44.874;-1.092;2023-04-22T03:24:50;100435.84;;;13.46;100.00
9784;BME280;4931;44.874;-1.092;2023-04-22T03:27:15;100443.91;;;13.42;100.00
9784;BME280;4931;44.874;-1.092;2023-04-22T03:29:41;100432.06;;;13.42;100.00
9784;BME280;4931;44.874;-1.092;2023-04-22T03:32:06;100434.53;;;13.43;100.00
9784;BME280;4931;44.874;-1.092;2023-04-22T03:34:31;100440.22;;;13.33;100.00
9784;BME280;4931;44.874;-1.092;2023-04-22T03:36:57;100435.13;;;13.26;100.00
9784;BME280;4931;44.874;-1.092;2023-04-22T03:39:22;100439.09;;;13.20;100.00
9784;BME280;4931;44.874;-1.092;2023-04-22T03:41:48;100455.19;;;13.27;100.00
9784;BME280;4931;44.874;-1.092;2023-04-22T03:44:13;100456.09;;;13.22;100.00
9784;BME280;4931;44.874;-1.092;2023-04-22T03:46:39;100446.09;;;13.12;100.00
9784;BME280;4931;44.874;-1.092;2023-04-22T03:49:05;100461.00;;;13.11;100.00
9784;BME280;4931;44.874;-1.092;2023-04-22T03:51:30;100465.25;;;13.04;100.00
9784;BME280;4931;44.874;-1.092;2023-04-22T03:53:56;100467.13;;;13.08;100.00
9784;BME280;4931;44.874;-1.092;2023-04-22T03:56:21;100474.47;;;13.13;100.00
9784;BME280;4931;44.874;-1.092;2023-04-22T03:58:49;100479.16;;;13.12;100.00
9784;BME280;4931;44.874;-1.092;2023-04-22T04:01:14;100476.50;;;13.07;100.00
9784;BME280;4931;44.874;-1.092;2023-04-22T04:03:40;100470.38;;;13.10;100.00
9784;BME280;4931;44.874;-1.092;2023-04-22T04:06:06;100485.28;;;13.09;100.00
9784;BME280;4931;44.874;-1.092;2023-04-22T04:08:32;100489.09;;;12.94;100.00
9784;BME280;4931;44.874;-1.092;2023-04-22T04:10:57;100482.97;;;12.84;100.00
9784;BME280;4931;44.874;-1.092;2023-04-22T04:13:23;100476.09;;;13.00;100.00
9784;BME280;4931;44.874;-1.092;2023-04-22T04:15:48;100470.06;;;12.98;100.00
9784;BME280;4931;44.874;-1.092;2023-04-22T04:18:14;100461.63;;;13.08;100.00
9784;BME280;4931;44.874;-1.092;2023-04-22T04:20:39;100465.91;;;13.28;100.00
9784;BME280;4931;44.874;-1.092;2023-04-22T04:23:05;100458.56;;;13.24;100.00
9784;BME280;4931;44.874;-1.092;2023-04-22T04:25:30;100467.75;;;13.05;100.00
9784;BME280;4931;44.874;-1.092;2023-04-22T04:28:03;100468.94;;;12.99;100.00
9784;BME280;4931;44.874;-1.092;2023-04-22T04:30:29;100478.22;;;13.03;100.00
9784;BME280;4931;44.874;-1.092;2023-04-22T04:32:55;100486.47;;;13.03;100.00
9784;BME280;4931;44.874;-1.092;2023-04-22T04:35:22;100490.97;;;12.99;100.00
9784;BME280;4931;44.874;-1.092;2023-04-22T04:37:48;100490.81;;;12.76;100.00
9784;BME280;4931;44.874;-1.092;2023-04-22T04:40:15;100489.25;;;13.03;100.00
9784;BME280;4931;44.874;-1.092;2023-04-22T04:42:40;100490.28;;;12.74;100.00
9784;BME280;4931;44.874;-1.092;2023-04-22T04:45:07;100494.59;;;12.81;100.00
9784;BME280;4931;44.874;-1.092;2023-04-22T04:47:33;100485.19;;;12.82;100.00
9784;BME280;4931;44.874;-1.092;2023-04-22T04:49:59;100498.28;;;12.90;100.00
9784;BME280;4931;44.874;-1.092;2023-04-22T04:52:25;100512.13;;;12.85;100.00
9784;BME280;4931;44.874;-1.092;2023-04-22T04:54:51;100507.81;;;12.78;100.00
9784;BME280;4931;44.874;-1.092;2023-04-22T04:57:16;100518.69;;;12.89;100.00
9784;BME280;4931;44.874;-1.092;2023-04-22T04:59:42;100529.06;;;12.92;100.00
9784;BME280;4931;44.874;-1.092;2023-04-22T05:02:07;100523.38;;;12.88;100.00
9784;BME280;4931;44.874;-1.092;2023-04-22T05:04:33;100520.47;;;12.79;100.00
9784;BME280;4931;44.874;-1.092;2023-04-22T05:06:58;100524.66;;;12.58;100.00
9784;BME280;4931;44.874;-1.092;2023-04-22T05:09:23;100537.59;;;12.76;100.00
9784;BME280;4931;44.874;-1.092;2023-04-22T05:11:49;100534.31;;;12.74;100.00
9784;BME280;4931;44.874;-1.092;2023-04-22T05:14:15;100545.72;;;12.68;100.00
9784;BME280;4931;44.874;-1.092;2023-04-22T05:16:40;100538.81;;;12.70;100.00
9784;BME280;4931;44.874;-1.092;2023-04-22T05:19:06;100544.88;;;12.67;100.00
9784;BME280;4931;44.874;-1.092;2023-04-22T05:21:32;100546.44;;;12.73;100.00
9784;BME280;4931;44.874;-1.092;2023-04-22T05:23:58;100546.28;;;12.65;100.00
9784;BME280;4931;44.874;-1.092;2023-04-22T05:26:23;100548.31;;;12.59;100.00
9784;BME280;4931;44.874;-1.092;2023-04-22T05:28:49;100565.44;;;12.56;100.00
9784;BME280;4931;44.874;-1.092;2023-04-22T05:31:14;100564.97;;;12.68;100.00
9784;BME280;4931;44.874;-1.092;2023-04-22T05:33:40;100564.44;;;12.66;100.00
9784;BME280;4931;44.874;-1.092;2023-04-22T05:36:05;100561.94;;;12.69;100.00
9784;BME280;4931;44.874;-1.092;2023-04-22T05:38:31;100557.53;;;12.68;100.00
9784;BME280;4931;44.874;-1.092;2023-04-22T05:40:56;100572.41;;;12.67;100.00
9784;BME280;4931;44.874;-1.092;2023-04-22T05:43:22;100589.38;;;12.74;100.00
9784;BME280;4931;44.874;-1.092;2023-04-22T05:45:47;100593.69;;;12.61;100.00
9784;BME280;4931;44.874;-1.092;2023-04-22T05:48:13;100601.72;;;12.58;100.00
9784;BME280;4931;44.874;-1.092;2023-04-22T05:50:38;100595.63;;;12.61;100.00
9784;BME280;4931;44.874;-1.092;2023-04-22T05:53:04;100599.84;;;12.53;100.00
9784;BME280;4931;44.874;-1.092;2023-04-22T05:55:29;100592.34;;;12.59;100.00
9784;BME280;4931;44.874;-1.092;2023-04-22T05:57:55;100598.22;;;12.71;100.00
9784;BME280;4931;44.874;-1.092;2023-04-22T06:00:20;100598.59;;;12.84;100.00
9784;BME280;4931;44.874;-1.092;2023-04-22T06:02:46;100606.31;;;12.82;100.00
9784;BME280;4931;44.874;-1.092;2023-04-22T06:05:11;100608.72;;;12.69;100.00
9784;BME280;4931;44.874;-1.092;2023-04-22T06:07:37;100617.28;;;12.68;100.00
9784;BME280;4931;44.874;-1.092;2023-04-22T06:10:02;100620.75;;;12.73;100.00
9784;BME280;4931;44.874;-1.092;2023-04-22T06:12:28;100625.16;;;12.74;100.00
9784;BME280;4931;44.874;-1.092;2023-04-22T06:14:53;100628.25;;;12.49;100.00
9784;BME280;4931;44.874;-1.092;2023-04-22T06:17:19;100628.09;;;12.40;100.00
9784;BME280;4931;44.874;-1.092;2023-04-22T06:19:45;100635.41;;;12.50;100.00
9784;BME280;4931;44.874;-1.092;2023-04-22T06:22:10;100646.44;;;12.69;100.00
9784;BME280;4931;44.874;-1.092;2023-04-22T06:24:35;100647.69;;;12.76;100.00
9784;BME280;4931;44.874;-1.092;2023-04-22T06:27:01;100646.69;;;12.48;100.00
9784;BME280;4931;44.874;-1.092;2023-04-22T06:29:27;100646.81;;;12.62;100.00
9784;BME280;4931;44.874;-1.092;2023-04-22T06:31:52;100648.22;;;12.78;100.00
9784;BME280;4931;44.874;-1.092;2023-04-22T06:34:19;100639.78;;;12.51;100.00
9784;BME280;4931;44.874;-1.092;2023-04-22T06:36:44;100642.53;;;12.70;100.00
9784;BME280;4931;44.874;-1.092;2023-04-22T06:39:09;100646.34;;;12.55;100.00
9784;BME280;4931;44.874;-1.092;2023-04-22T06:41:35;100650.66;;;12.61;100.00
9784;BME280;4931;44.874;-1.092;2023-04-22T06:44:01;100662.84;;;12.55;100.00
9784;BME280;4931;44.874;-1.092;2023-04-22T06:46:26;100666.50;;;12.50;100.00
9784;BME280;4931;44.874;-1.092;2023-04-22T06:48:52;100662.72;;;12.41;100.00
9784;BME280;4931;44.874;-1.092;2023-04-22T06:51:17;100661.06;;;12.45;100.00
9784;BME280;4931;44.874;-1.092;2023-04-22T06:53:43;100661.00;;;12.69;100.00
9784;BME280;4931;44.874;-1.092;2023-04-22T06:56:08;100665.16;;;12.48;100.00
9784;BME280;4931;44.874;-1.092;2023-04-22T06:58:34;100679.47;;;12.44;100.00
9784;BME280;4931;44.874;-1.092;2023-04-22T07:00:59;100673.25;;;12.58;100.00
9784;BME280;4931;44.874;-1.092;2023-04-22T07:03:25;100681.56;;;12.53;100.00
9784;BME280;4931;44.874;-1.092;2023-04-22T07:05:50;100659.22;;;12.59;100.00
9784;BME280;4931;44.874;-1.092;2023-04-22T07:08:16;100665.06;;;12.53;100.00
9784;BME280;4931;44.874;-1.092;2023-04-22T07:10:42;100660.03;;;12.60;100.00
9784;BME280;4931;44.874;-1.092;2023-04-22T07:13:07;100658.19;;;12.74;100.00
9784;BME280;4931;44.874;-1.092;2023-04-22T07:15:33;100666.69;;;12.54;100.00
9784;BME280;4931;44.874;-1.092;2023-04-22T07:17:59;100679.41;;;12.50;100.00
9784;BME280;4931;44.874;-1.092;2023-04-22T07:20:25;100682.16;;;12.50;100.00
9784;BME280;4931;44.874;-1.092;2023-04-22T07:22:51;100680.13;;;12.79;100.00
9784;BME280;4931;44.874;-1.092;2023-04-22T07:25:17;100689.69;;;12.44;100.00
9784;BME280;4931;44.874;-1.092;2023-04-22T07:27:43;100700.13;;;12.66;100.00
9784;BME280;4931;44.874;-1.092;2023-04-22T07:30:10;100703.78;;;12.81;100.00
9784;BME280;4931;44.874;-1.092;2023-04-22T07:32:37;100706.75;;;12.84;100.00
9784;BME280;4931;44.874;-1.092;2023-04-22T07:35:04;100702.75;;;13.53;100.00
9784;BME280;4931;44.874;-1.092;2023-04-22T07:37:30;100704.16;;;13.31;100.00
9784;BME280;4931;44.874;-1.092;2023-04-22T07:39:56;100711.91;;;13.29;100.00
9784;BME280;4931;44.874;-1.092;2023-04-22T07:42:21;100715.25;;;13.26;100.00
9784;BME280;4931;44.874;-1.092;2023-04-22T07:44:47;100718.38;;;14.60;100.00
9784;BME280;4931;44.874;-1.092;2023-04-22T07:47:12;100712.47;;;14.39;100.00
9784;BME280;4931;44.874;-1.092;2023-04-22T07:49:38;100713.66;;;13.91;100.00
9784;BME280;4931;44.874;-1.092;2023-04-22T07:52:03;100719.44;;;13.75;100.00
9784;BME280;4931;44.874;-1.092;2023-04-22T07:54:30;100724.59;;;13.63;100.00
9784;BME280;4931;44.874;-1.092;2023-04-22T07:56:57;100709.06;;;13.53;100.00
9784;BME280;4931;44.874;-1.092;2023-04-22T07:59:23;100716.00;;;13.51;100.00
9784;BME280;4931;44.874;-1.092;2023-04-22T08:01:49;100719.47;;;13.56;100.00
9784;BME280;4931;44.874;-1.092;2023-04-22T08:04:15;100708.66;;;13.60;100.00
9784;BME280;4931;44.874;-1.092;2023-04-22T08:06:41;100724.88;;;13.81;100.00
9784;BME280;4931;44.874;-1.092;2023-04-22T08:09:07;100726.22;;;13.97;100.00
9784;BME280;4931;44.874;-1.092;2023-04-22T08:11:35;100727.88;;;14.12;100.00
9784;BME280;4931;44.874;-1.092;2023-04-22T08:14:00;100719.69;;;14.21;100.00
9784;BME280;4931;44.874;-1.092;2023-04-22T08:16:26;100735.13;;;14.22;100.00
9784;BME280;4931;44.874;-1.092;2023-04-22T08:18:51;100735.13;;;14.22;100.00
9784;BME280;4931;44.874;-1.092;2023-04-22T08:21:17;100733.63;;;14.16;100.00
9784;BME280;4931;44.874;-1.092;2023-04-22T08:23:43;100741.28;;;14.19;100.00
9784;BME280;4931;44.874;-1.092;2023-04-22T08:26:08;100747.19;;;14.26;100.00
9784;BME280;4931;44.874;-1.092;2023-04-22T08:28:39;100733.72;;;14.38;100.00
9784;BME280;4931;44.874;-1.092;2023-04-22T08:31:05;100743.31;;;14.27;100.00
9784;BME280;4931;44.874;-1.092;2023-04-22T08:33:30;100753.56;;;14.26;100.00
9784;BME280;4931;44.874;-1.092;2023-04-22T08:35:56;100759.66;;;14.23;100.00
9784;BME280;4931;44.874;-1.092;2023-04-22T08:38:21;100749.94;;;14.26;100.00
9784;BME280;4931;44.874;-1.092;2023-04-22T08:40:47;100755.06;;;14.33;100.00
9784;BME280;4931;44.874;-1.092;2023-04-22T08:43:13;100748.13;;;14.49;100.00
9784;BME280;4931;44.874;-1.092;2023-04-22T08:45:39;100756.44;;;14.63;100.00
9784;BME280;4931;44.874;-1.092;2023-04-22T08:48:07;100765.03;;;14.75;100.00
9784;BME280;4931;44.874;-1.092;2023-04-22T08:50:36;100761.31;;;14.94;100.00
9784;BME280;4931;44.874;-1.092;2023-04-22T08:53:02;100762.53;;;15.02;100.00
9784;BME280;4931;44.874;-1.092;2023-04-22T08:55:28;100760.09;;;15.00;100.00
9784;BME280;4931;44.874;-1.092;2023-04-22T08:57:54;100761.75;;;14.87;100.00
9784;BME280;4931;44.874;-1.092;2023-04-22T09:00:20;100756.81;;;14.98;100.00
9784;BME280;4931;44.874;-1.092;2023-04-22T09:02:46;100767.03;;;15.12;100.00
9784;BME280;4931;44.874;-1.092;2023-04-22T09:05:13;100764.56;;;15.10;100.00
9784;BME280;4931;44.874;-1.092;2023-04-22T09:07:39;100769.91;;;15.06;100.00
9784;BME280;4931;44.874;-1.092;2023-04-22T09:10:05;100775.19;;;15.17;100.00
9784;BME280;4931;44.874;-1.092;2023-04-22T09:12:32;100779.91;;;15.16;100.00
9784;BME280;4931;44.874;-1.092;2023-04-22T09:14:58;100786.88;;;15.14;100.00
9784;BME280;4931;44.874;-1.092;2023-04-22T09:17:34;100786.44;;;15.20;100.00
9784;BME280;4931;44.874;-1.092;2023-04-22T09:20:04;100788.97;;;15.31;100.00
9784;BME280;4931;44.874;-1.092;2023-04-22T09:22:51;100787.84;;;15.32;100.00
9784;BME280;4931;44.874;-1.092;2023-04-22T09:25:25;100787.06;;;15.17;100.00
9784;BME280;4931;44.874;-1.092;2023-04-22T09:27:56;100794.41;;;15.22;100.00
9784;BME280;4931;44.874;-1.092;2023-04-22T09:30:26;100789.75;;;15.08;100.00
9784;BME280;4931;44.874;-1.092;2023-04-22T09:32:53;100796.38;;;15.07;100.00
9784;BME280;4931;44.874;-1.092;2023-04-22T09:35:33;100797.66;;;15.01;100.00
9784;BME280;4931;44.874;-1.092;2023-04-22T09:38:01;100796.63;;;14.97;100.00
9784;BME280;4931;44.874;-1.092;2023-04-22T09:40:27;100807.94;;;15.23;100.00
9784;BME280;4931;44.874;-1.092;2023-04-22T09:42:54;100809.34;;;15.35;100.00
9784;BME280;4931;44.874;-1.092;2023-04-22T09:45:28;100815.06;;;15.38;100.00
9784;BME280;4931;44.874;-1.092;2023-04-22T09:47:55;100816.19;;;15.37;100.00
9784;BME280;4931;44.874;-1.092;2023-04-22T09:50:26;100814.00;;;15.48;100.00
9784;BME280;4931;44.874;-1.092;2023-04-22T09:52:57;100813.16;;;15.62;100.00
9784;BME280;4931;44.874;-1.092;2023-04-22T09:55:25;100812.75;;;15.54;100.00
9784;BME280;4931;44.874;-1.092;2023-04-22T09:57:52;100810.69;;;15.60;100.00
9784;BME280;4931;44.874;-1.092;2023-04-22T10:00:19;100818.50;;;15.58;100.00
9784;BME280;4931;44.874;-1.092;2023-04-22T10:02:45;100826.66;;;15.63;100.00
9784;BME280;4931;44.874;-1.092;2023-04-22T10:05:11;100820.75;;;15.56;100.00
9784;BME280;4931;44.874;-1.092;2023-04-22T10:07:41;100826.38;;;15.51;100.00
9784;BME280;4931;44.874;-1.092;2023-04-22T10:10:08;100835.53;;;15.37;100.00
9784;BME280;4931;44.874;-1.092;2023-04-22T10:12:37;100831.66;;;15.38;100.00
9784;BME280;4931;44.874;-1.092;2023-04-22T10:15:04;100836.69;;;15.22;100.00
9784;BME280;4931;44.874;-1.092;2023-04-22T10:17:32;100839.03;;;15.29;100.00
9784;BME280;4931;44.874;-1.092;2023-04-22T10:20:02;100841.25;;;15.41;100.00
9784;BME280;4931;44.874;-1.092;2023-04-22T10:22:33;100838.34;;;15.60;100.00
9784;BME280;4931;44.874;-1.092;2023-04-22T10:24:59;100848.50;;;15.87;100.00
9784;BME280;4931;44.874;-1.092;2023-04-22T10:27:25;100850.47;;;16.09;100.00
9784;BME280;4931;44.874;-1.092;2023-04-22T10:29:50;100854.84;;;16.33;100.00
9784;BME280;4931;44.874;-1.092;2023-04-22T10:34:42;100854.44;;;16.49;100.00
9784;BME280;4931;44.874;-1.092;2023-04-22T10:37:10;100848.13;;;16.57;100.00
9784;BME280;4931;44.874;-1.092;2023-04-22T10:39:39;100861.19;;;16.56;100.00
9784;BME280;4931;44.874;-1.092;2023-04-22T10:42:11;100860.81;;;16.89;100.00
9784;BME280;4931;44.874;-1.092;2023-04-22T10:44:51;100866.06;;;16.91;100.00
9784;BME280;4931;44.874;-1.092;2023-04-22T10:49:50;100870.94;;;16.54;100.00
9784;BME280;4931;44.874;-1.092;2023-04-22T10:52:27;100876.69;;;16.98;100.00
9784;BME280;4931;44.874;-1.092;2023-04-22T10:57:19;100875.44;;;17.13;100.00
9784;BME280;4931;44.874;-1.092;2023-04-22T10:59:54;100877.63;;;17.42;100.00
9784;BME280;4931;44.874;-1.092;2023-04-22T11:02:21;100875.53;;;17.83;100.00
9784;BME280;4931;44.874;-1.092;2023-04-22T11:04:47;100868.66;;;18.24;100.00
9784;BME280;4931;44.874;-1.092;2023-04-22T11:15:09;100874.81;;;18.56;100.00
9784;BME280;4931;44.874;-1.092;2023-04-22T11:17:36;100872.28;;;18.33;100.00
9784;BME280;4931;44.874;-1.092;2023-04-22T11:20:13;100880.56;;;18.42;100.00
9784;BME280;4931;44.874;-1.092;2023-04-22T11:22:50;100880.56;;;18.51;100.00
9784;BME280;4931;44.874;-1.092;2023-04-22T11:25:16;100873.47;;;18.62;100.00
9784;BME280;4931;44.874;-1.092;2023-04-22T11:27:42;100875.06;;;18.81;100.00
9784;BME280;4931;44.874;-1.092;2023-04-22T11:30:13;100871.38;;;19.06;100.00
9784;BME280;4931;44.874;-1.092;2023-04-22T11:32:44;100880.91;;;18.88;100.00
9784;BME280;4931;44.874;-1.092;2023-04-22T11:35:17;100876.00;;;18.94;100.00
9784;BME280;4931;44.874;-1.092;2023-04-22T11:37:50;100880.56;;;18.98;100.00
9784;BME280;4931;44.874;-1.092;2023-04-22T11:40:21;100874.91;;;19.16;100.00
9784;BME280;4931;44.874;-1.092;2023-04-22T11:42:48;100877.59;;;19.33;100.00
9784;BME280;4931;44.874;-1.092;2023-04-22T11:45:14;100873.44;;;19.18;100.00
9784;BME280;4931;44.874;-1.092;2023-04-22T11:47:41;100879.88;;;19.01;100.00
9784;BME280;4931;44.874;-1.092;2023-04-22T11:50:08;100884.22;;;18.90;100.00
9784;BME280;4931;44.874;-1.092;2023-04-22T11:55:21;100900.91;;;18.72;100.00
9784;BME280;4931;44.874;-1.092;2023-04-22T11:57:53;100894.25;;;18.56;100.00
9784;BME280;4931;44.874;-1.092;2023-04-22T12:00:19;100896.47;;;18.80;100.00
9784;BME280;4931;44.874;-1.092;2023-04-22T12:02:54;100898.63;;;19.13;100.00
9784;BME280;4931;44.874;-1.092;2023-04-22T12:05:34;100902.25;;;19.44;100.00
9784;BME280;4931;44.874;-1.092;2023-04-22T12:08:01;100902.69;;;19.76;100.00
9784;BME280;4931;44.874;-1.092;2023-04-22T12:10:28;100907.41;;;19.75;100.00
9784;BME280;4931;44.874;-1.092;2023-04-22T12:12:54;100896.34;;;19.96;100.00
9784;BME280;4931;44.874;-1.092;2023-04-22T12:15:19;100910.81;;;20.23;100.00
9784;BME280;4931;44.874;-1.092;2023-04-22T12:17:44;100912.50;;;20.03;100.00
9784;BME280;4931;44.874;-1.092;2023-04-22T12:20:11;100923.88;;;19.89;100.00
9784;BME280;4931;44.874;-1.092;2023-04-22T12:22:37;100912.56;;;19.64;100.00
9784;BME280;4931;44.874;-1.092;2023-04-22T12:25:03;100921.47;;;19.79;100.00
9784;BME280;4931;44.874;-1.092;2023-04-22T12:27:29;100920.63;;;19.87;100.00
9784;BME280;4931;44.874;-1.092;2023-04-22T12:29:56;100926.19;;;19.87;100.00
9784;BME280;4931;44.874;-1.092;2023-04-22T12:32:24;100911.97;;;20.22;100.00
9784;BME280;4931;44.874;-1.092;2023-04-22T12:34:49;100915.03;;;20.29;100.00
9784;BME280;4931;44.874;-1.092;2023-04-22T12:37:15;100928.06;;;20.37;100.00
9784;BME280;4931;44.874;-1.092;2023-04-22T12:39:42;100937.41;;;19.99;100.00
9784;BME280;4931;44.874;-1.092;2023-04-22T12:42:08;100930.19;;;19.98;100.00
9784;BME280;4931;44.874;-1.092;2023-04-22T12:44:33;100933.94;;;20.02;100.00
9784;BME280;4931;44.874;-1.092;2023-04-22T12:46:59;100937.69;;;20.40;100.00
9784;BME280;4931;44.874;-1.092;2023-04-22T12:49:25;100931.34;;;19.97;100.00
9784;BME280;4931;44.874;-1.092;2023-04-22T12:51:50;100930.22;;;19.68;100.00
9784;BME280;4931;44.874;-1.092;2023-04-22T12:54:17;100920.84;;;19.82;100.00
9784;BME280;4931;44.874;-1.092;2023-04-22T12:56:44;100923.03;;;20.31;100.00
9784;BME280;4931;44.874;-1.092;2023-04-22T12:59:10;100927.16;;;19.91;100.00
9784;BME280;4931;44.874;-1.092;2023-04-22T13:01:37;100938.28;;;19.91;100.00
9784;BME280;4931;44.874;-1.092;2023-04-22T13:04:03;100940.31;;;20.24;100.00